Helmi — SA7925 — position and weather

sailwx.info

Track history (hours):
 
Tides and Currents Weather Stations Pressure Air Temp Water Temp Dewpoint Dewpoint Depression Visibility Wind Speed Wind Dir Waves Ship Positions

Helmi

Last reported at 2018-Apr-22 22:33 UTC. Time now 2018-Apr-24 08:54 UTC.
Position N 17°04' W 061°54'.

Length 12 m.

Type: Pleasure craft. MMSI: 265614710.

Date/timePositionNaut miles runAvg speedWind from/ knotsBaromVisibWave heightAir tempDewpointWater temp
2018-Apr-22 22:33N 17°04' W 061°54'0 0.1
2018-Apr-22 22:30N 17°04' W 061°54'0 0.0
2018-Apr-22 21:57N 17°04' W 061°54'0 0.0
2018-Apr-22 21:30N 17°04' W 061°54'0 0.0
2018-Apr-22 21:00N 17°04' W 061°54'0 0.0
2018-Apr-22 20:30N 17°04' W 061°54'0 0.0
2018-Apr-22 20:00N 17°04' W 061°54'0 0.2
2018-Apr-22 19:30N 17°04' W 061°54'1 2.8
2018-Apr-22 19:00N 17°03' W 061°54'2 4.2
2018-Apr-22 18:30N 17°01' W 061°54'2 4.4
2018-Apr-22 18:00N 16°60' W 061°52'2 4.0
2018-Apr-22 17:30N 16°59' W 061°50'2 4.2
2018-Apr-22 17:00N 16°60' W 061°48'2 4.0
2018-Apr-22 16:30N 17°00' W 061°46'0 0.0
2018-Apr-20 13:04N 17°00' W 061°46'0 0.1
2018-Apr-20 12:58N 17°00' W 061°46'0 0.0
2018-Apr-20 01:52N 17°00' W 061°46'  
Track history (hours):
 
Tides and Currents Weather Stations Pressure Air Temp Water Temp Dewpoint Dewpoint Depression Visibility Wind Speed Wind Dir Waves Ship Positions

Helmi

Last reported at 2018-Apr-22 22:33 UTC. Time now 2018-Apr-24 08:54 UTC.
Position N 17°04' W 061°54'.

Length 12 m.

Type: Pleasure craft. MMSI: 265614710.

Date/timePositionNaut miles runAvg speedWind from/ knotsBaromVisibWave heightAir tempDewpointWater temp
2018-Apr-22 22:33N 17°04' W 061°54'0 0.1
2018-Apr-22 22:30N 17°04' W 061°54'0 0.0
2018-Apr-22 21:57N 17°04' W 061°54'0 0.0
2018-Apr-22 21:30N 17°04' W 061°54'0 0.0
2018-Apr-22 21:00N 17°04' W 061°54'0 0.0
2018-Apr-22 20:30N 17°04' W 061°54'0 0.0
2018-Apr-22 20:00N 17°04' W 061°54'0 0.2
2018-Apr-22 19:30N 17°04' W 061°54'1 2.8
2018-Apr-22 19:00N 17°03' W 061°54'2 4.2
2018-Apr-22 18:30N 17°01' W 061°54'2 4.4
2018-Apr-22 18:00N 16°60' W 061°52'2 4.0
2018-Apr-22 17:30N 16°59' W 061°50'2 4.2
2018-Apr-22 17:00N 16°60' W 061°48'2 4.0
2018-Apr-22 16:30N 17°00' W 061°46'0 0.0
2018-Apr-20 13:04N 17°00' W 061°46'0 0.1
2018-Apr-20 12:58N 17°00' W 061°46'0 0.0
2018-Apr-20 01:52N 17°00' W 061°46'  

Dump ship's entire track history